Time;durP1;ratioP1;P1;durP2;ratioP2;P2;SDS_P1;SDS_P2;PMS_P1;PMS_P2;Temp;Humidity;BMP_temperature;BMP_pressure;BME280_temperature;BME280_humidity;BME280_pressure;Samples;Min_cycle;Max_cycle;Signal;HPM_P1;HPM_P2
2023/03/05 00:00:55;;;;;;;84.10;49.67;;;7.00;99.90;;;;;;5113421;28;20028;-52
2023/03/05 00:03:21;;;;;;;87.97;50.90;;;7.10;99.90;;;;;;5113662;28;20371;-52
2023/03/05 00:05:47;;;;;;;93.38;47.58;;;7.10;99.90;;;;;;5113119;28;20036;-52
2023/03/05 00:08:12;;;;;;;81.57;43.50;;;7.10;99.90;;;;;;5113711;28;20193;-52
2023/03/05 00:10:38;;;;;;;84.90;41.20;;;7.00;99.90;;;;;;5113287;28;20019;-52
2023/03/05 00:13:06;;;;;;;76.03;40.95;;;;;;;;;;5077343;28;20379;-52
2023/03/05 00:15:32;;;;;;;79.32;41.63;;;6.80;99.90;;;;;;5114356;28;20036;-52
2023/03/05 00:17:58;;;;;;;74.97;40.97;;;;;;;;;;5116754;28;20038;-52
2023/03/05 00:20:24;;;;;;;76.40;39.72;;;6.40;99.90;;;;;;5116857;28;20051;-52
2023/03/05 00:22:49;;;;;;;78.25;41.17;;;6.60;99.90;;;;;;5116835;28;20089;-52
2023/03/05 00:25:15;;;;;;;79.80;42.50;;;;;;;;;;5117097;28;20024;-52
2023/03/05 00:27:41;;;;;;;74.78;40.42;;;6.80;99.90;;;;;;5097753;28;20441;-52
2023/03/05 00:30:27;;;;;;;78.07;42.50;;;6.80;99.90;;;;;;5117051;28;20036;-52
2023/03/05 00:32:53;;;;;;;75.20;40.15;;;6.80;99.90;;;;;;5073659;28;20068;-52
2023/03/05 00:35:19;;;;;;;84.20;43.67;;;;;;;;;;5073800;28;20446;-54
2023/03/05 00:37:45;;;;;;;74.20;41.28;;;;;;;;;;5073725;28;20074;-52
2023/03/05 00:40:11;;;;;;;78.65;38.97;;;6.50;99.90;;;;;;5057206;28;20383;-52
2023/03/05 00:42:37;;;;;;;87.80;42.88;;;6.40;99.90;;;;;;5073683;28;20044;-52
2023/03/05 00:45:06;;;;;;;86.50;42.90;;;;;;;;;;5073646;28;20045;-52
2023/03/05 00:47:32;;;;;;;75.18;42.25;;;;;;;;;;5073415;28;20032;-52
2023/03/05 00:49:58;;;;;;;83.70;42.33;;;6.10;99.90;;;;;;5073676;28;20119;-52
2023/03/05 00:52:24;;;;;;;82.05;41.83;;;6.10;99.90;;;;;;5073427;28;20155;-52
2023/03/05 00:54:50;;;;;;;67.68;29.98;;;6.00;99.90;;;;;;5056541;28;20449;-52
2023/03/05 00:57:16;;;;;;;85.18;42.97;;;5.70;99.90;;;;;;5073358;28;20041;-52
2023/03/05 00:59:41;;;;;;;79.32;43.05;;;5.70;99.90;;;;;;5073217;28;20040;-52
2023/03/05 01:02:07;;;;;;;77.90;41.17;;;5.50;99.90;;;;;;5073381;28;20056;-52
2023/03/05 01:04:33;;;;;;;83.55;43.45;;;5.60;99.90;;;;;;5073181;28;20044;-52
2023/03/05 01:06:59;;;;;;;79.25;41.47;;;5.70;99.90;;;;;;5039577;28;20492;-52
2023/03/05 01:09:24;;;;;;;83.43;42.15;;;5.60;99.90;;;;;;5079020;28;20463;-52
2023/03/05 01:11:51;;;;;;;81.82;41.20;;;5.60;99.90;;;;;;5080159;28;20052;-52
2023/03/05 01:14:18;;;;;;;64.97;33.20;;;5.60;99.90;;;;;;5116057;27;20055;-52
2023/03/05 01:16:44;;;;;;;82.45;41.38;;;;;;;;;;5096644;28;20061;-52
2023/03/05 01:19:10;;;;;;;77.47;39.55;;;5.50;99.90;;;;;;5115414;28;20586;-52
2023/03/05 01:21:36;;;;;;;75.68;38.05;;;5.60;99.90;;;;;;5116104;28;20039;-52
2023/03/05 01:24:03;;;;;;;81.72;39.88;;;5.60;99.90;;;;;;5115759;28;20383;-52
2023/03/05 01:26:29;;;;;;;80.97;42.90;;;5.50;99.90;;;;;;5115128;28;20061;-52
2023/03/05 01:28:54;;;;;;;79.20;40.60;;;5.60;99.90;;;;;;5113634;28;20505;-52
2023/03/05 01:31:21;;;;;;;72.65;38.00;;;5.70;99.90;;;;;;5115821;28;20066;-52
2023/03/05 01:33:47;;;;;;;74.63;37.83;;;5.70;99.90;;;;;;5115891;28;20036;-52
2023/03/05 01:36:15;;;;;;;83.07;39.55;;;5.70;99.90;;;;;;5115436;28;20039;-52
2023/03/05 01:38:46;;;;;;;67.32;33.65;;;5.80;99.90;;;;;;5115337;28;20036;-52
2023/03/05 01:41:13;;;;;;;74.07;36.10;;;5.70;99.90;;;;;;5115762;28;20063;-52
2023/03/05 01:43:40;;;;;;;74.13;37.22;;;5.70;99.90;;;;;;5115324;28;20031;-52
2023/03/05 01:46:33;;;;;;;79.82;37.33;;;5.80;99.90;;;;;;5115206;28;20160;-52
2023/03/05 01:49:17;;;;;;;74.35;35.85;;;6.00;99.90;;;;;;5115179;28;20028;-52
2023/03/05 01:52:05;;;;;;;75.53;37.58;;;6.00;99.90;;;;;;5115638;28;20088;-52
2023/03/05 01:54:36;;;;;;;72.75;36.55;;;6.10;99.90;;;;;;5096081;28;20039;-52
2023/03/05 01:57:14;;;;;;;79.07;38.42;;;6.10;99.90;;;;;;5114904;28;20032;-52
2023/03/05 01:59:43;;;;;;;72.20;37.42;;;6.20;99.90;;;;;;5115021;28;20055;-52
2023/03/05 02:02:09;;;;;;;75.53;38.95;;;;;;;;;;5113277;28;20115;-52
2023/03/05 02:04:49;;;;;;;70.00;38.38;;;6.40;99.90;;;;;;5115002;28;20461;-52
2023/03/05 02:07:16;;;;;;;75.38;39.55;;;6.60;99.90;;;;;;5114860;28;20031;-52
2023/03/05 02:09:42;;;;;;;75.88;38.22;;;6.70;99.90;;;;;;5113157;28;20047;-52
2023/03/05 02:12:10;;;;;;;73.03;38.95;;;6.70;99.90;;;;;;5114741;28;20403;-52
2023/03/05 02:14:37;;;;;;;75.10;36.10;;;6.80;99.90;;;;;;5114266;28;20454;-52
2023/03/05 02:17:03;;;;;;;73.03;37.58;;;6.90;99.90;;;;;;5114718;28;20040;-52
2023/03/05 02:19:44;;;;;;;71.68;37.33;;;6.90;99.90;;;;;;5114419;28;20074;-52
2023/03/05 02:22:14;;;;;;;76.50;37.65;;;6.90;99.90;;;;;;5123070;27;20110;-52
2023/03/05 02:24:40;;;;;;;63.88;37.35;;;6.80;99.90;;;;;;5135431;27;20034;-52
2023/03/05 02:27:06;;;;;;;71.15;34.75;;;6.70;99.90;;;;;;5135481;27;20031;-52
2023/03/05 02:29:34;;;;;;;69.90;37.00;;;6.60;99.90;;;;;;5135369;27;20035;-52
2023/03/05 02:32:00;;;;;;;70.10;36.35;;;6.50;99.90;;;;;;5135125;27;20466;-52
2023/03/05 02:34:26;;;;;;;73.55;37.30;;;6.50;99.90;;;;;;5115806;27;20050;-52
2023/03/05 02:36:54;;;;;;;74.50;36.15;;;6.50;99.90;;;;;;5135099;27;20442;-51
2023/03/05 02:39:20;;;;;;;73.07;36.17;;;6.40;99.90;;;;;;5134683;27;20148;-52
2023/03/05 02:41:45;;;;;;;72.65;35.92;;;6.40;99.90;;;;;;5134776;27;20059;-52
2023/03/05 02:44:11;;;;;;;70.10;38.13;;;6.50;99.90;;;;;;5135025;27;20386;-52
2023/03/05 02:46:37;;;;;;;67.88;35.58;;;6.40;99.90;;;;;;5134556;27;20023;-52
2023/03/05 02:49:03;;;;;;;66.22;36.03;;;6.40;99.90;;;;;;5134947;27;20053;-52
2023/03/05 02:51:29;;;;;;;73.43;35.45;;;6.60;99.90;;;;;;5134566;27;20432;-52
2023/03/05 02:53:54;;;;;;;65.38;36.53;;;6.30;99.90;;;;;;5134400;27;20030;-52
2023/03/05 02:56:20;;;;;;;61.08;32.55;;;6.10;99.90;;;;;;5134588;27;20043;-52
2023/03/05 02:58:46;;;;;;;69.03;33.33;;;6.10;99.90;;;;;;5132665;27;20053;-52
2023/03/05 03:01:12;;;;;;;65.13;34.08;;;6.10;99.90;;;;;;5115438;27;20509;-52
2023/03/05 03:03:37;;;;;;;60.53;32.10;;;6.10;99.90;;;;;;5134431;27;20039;-52
2023/03/05 03:06:03;;;;;;;62.83;33.63;;;6.10;99.90;;;;;;5134760;27;20549;-52
2023/03/05 03:08:29;;;;;;;60.63;32.33;;;5.90;99.90;;;;;;5098526;27;20059;-52
2023/03/05 03:10:55;;;;;;;63.90;31.60;;;5.90;99.90;;;;;;5134201;27;20041;-52
2023/03/05 03:13:23;;;;;;;62.13;31.92;;;5.90;99.90;;;;;;5134497;27;20478;-51
2023/03/05 03:15:49;;;;;;;64.75;33.60;;;5.90;99.90;;;;;;5134540;27;20061;-52
2023/03/05 03:18:15;;;;;;;58.42;31.88;;;5.80;99.90;;;;;;5134043;27;20047;-52
2023/03/05 03:20:41;;;;;;;61.60;32.80;;;;;;;;;;5134115;27;20038;-52
2023/03/05 03:23:07;;;;;;;56.40;32.05;;;5.90;99.90;;;;;;5134307;28;20462;-52
2023/03/05 03:25:34;;;;;;;60.83;31.52;;;5.80;99.90;;;;;;5134202;28;20023;-52
2023/03/05 03:27:59;;;;;;;63.55;31.45;;;5.70;99.90;;;;;;5134352;27;20039;-52
2023/03/05 03:30:25;;;;;;;57.28;32.33;;;5.70;99.90;;;;;;5134132;28;20035;-52
2023/03/05 03:32:51;;;;;;;60.35;32.15;;;5.70;99.90;;;;;;5115124;28;20062;-52
2023/03/05 03:35:17;;;;;;;58.55;31.33;;;5.60;99.90;;;;;;5114988;28;20066;-52
2023/03/05 03:37:43;;;;;;;59.63;29.80;;;5.60;99.90;;;;;;5115039;28;20050;-52
2023/03/05 03:40:10;;;;;;;56.28;28.63;;;5.50;99.90;;;;;;5134265;28;20031;-52
2023/03/05 03:42:36;;;;;;;54.92;29.63;;;5.60;99.90;;;;;;5134074;27;20087;-52
2023/03/05 03:45:02;;;;;;;46.95;27.95;;;5.60;99.90;;;;;;5133899;28;20510;-52
2023/03/05 03:47:29;;;;;;;45.63;25.17;;;5.50;99.90;;;;;;5134057;27;20459;-52
2023/03/05 03:49:55;;;;;;;48.70;27.70;;;5.40;99.90;;;;;;5134642;27;20035;-51
2023/03/05 03:52:21;;;;;;;45.88;26.60;;;5.40;99.90;;;;;;5138323;27;20493;-52
2023/03/05 03:54:49;;;;;;;47.95;27.05;;;5.40;99.90;;;;;;5137735;27;20034;-52
2023/03/05 03:57:15;;;;;;;51.42;26.40;;;5.40;99.90;;;;;;5137966;27;20027;-52
2023/03/05 03:59:41;;;;;;;48.08;27.75;;;;;;;;;;5137838;27;20116;-52
2023/03/05 04:02:06;;;;;;;48.60;25.85;;;5.70;99.90;;;;;;5138330;27;20035;-52
2023/03/05 04:04:33;;;;;;;44.85;26.48;;;;;;;;;;5138014;27;20034;-52
2023/03/05 04:06:58;;;;;;;50.63;26.25;;;5.50;99.90;;;;;;5137812;27;20492;-52
2023/03/05 04:09:24;;;;;;;44.63;25.75;;;5.40;99.90;;;;;;5138245;27;20118;-52
2023/03/05 04:11:50;;;;;;;44.53;25.27;;;5.50;99.90;;;;;;5137800;27;20075;-52
2023/03/05 04:14:15;;;;;;;45.63;27.15;;;5.60;99.90;;;;;;5137627;27;20440;-51
2023/03/05 04:16:41;;;;;;;50.15;26.30;;;5.70;99.90;;;;;;5137696;27;20095;-52
2023/03/05 04:19:07;;;;;;;51.95;27.55;;;5.60;99.90;;;;;;5137309;27;20050;-52
2023/03/05 04:21:32;;;;;;;53.30;27.15;;;5.40;99.90;;;;;;5137729;27;20030;-52
2023/03/05 04:23:58;;;;;;;47.15;27.23;;;5.50;99.90;;;;;;5137775;27;20031;-52
2023/03/05 04:26:24;;;;;;;48.72;28.17;;;5.30;99.90;;;;;;5137683;27;20046;-51
2023/03/05 04:28:49;;;;;;;50.67;27.27;;;5.20;99.90;;;;;;5137217;27;20064;-52
2023/03/05 04:31:16;;;;;;;46.00;25.65;;;5.20;99.90;;;;;;5137534;27;20031;-51
2023/03/05 04:33:42;;;;;;;48.47;27.88;;;5.20;99.90;;;;;;5136907;27;20031;-52
2023/03/05 04:36:08;;;;;;;52.45;27.83;;;5.20;99.90;;;;;;5137348;27;20482;-52
2023/03/05 04:38:33;;;;;;;51.70;28.30;;;5.10;99.90;;;;;;5084117;27;20502;-53
2023/03/05 04:40:59;;;;;;;54.40;29.08;;;5.20;99.90;;;;;;5137246;27;20128;-52
2023/03/05 04:43:25;;;;;;;52.25;27.88;;;5.10;99.90;;;;;;5137039;27;20035;-51
2023/03/05 04:45:50;;;;;;;50.10;27.85;;;5.20;99.90;;;;;;5136914;27;20035;-52
2023/03/05 04:48:17;;;;;;;50.03;27.35;;;5.20;99.90;;;;;;5136604;27;20051;-51
2023/03/05 04:50:43;;;;;;;49.47;28.48;;;5.30;99.90;;;;;;5137002;27;20039;-51
2023/03/05 04:53:09;;;;;;;46.45;27.52;;;5.30;99.90;;;;;;5137127;27;20031;-52
2023/03/05 04:55:34;;;;;;;51.50;27.15;;;5.30;99.90;;;;;;5136753;27;20027;-52
2023/03/05 04:58:00;;;;;;;43.85;26.05;;;5.40;99.90;;;;;;5136773;27;20038;-52
2023/03/05 05:00:26;;;;;;;45.67;26.08;;;5.50;99.90;;;;;;5137131;27;20079;-52
2023/03/05 05:02:52;;;;;;;47.97;24.38;;;5.50;99.90;;;;;;5135341;27;20466;-52
2023/03/05 05:05:20;;;;;;;43.40;25.05;;;5.50;99.90;;;;;;5137182;27;20415;-51
2023/03/05 05:07:46;;;;;;;40.42;23.42;;;5.40;99.90;;;;;;5136090;27;20195;-51
2023/03/05 05:10:13;;;;;;;43.90;22.42;;;5.40;99.90;;;;;;5136489;27;20498;-52
2023/03/05 05:12:39;;;;;;;45.88;24.13;;;5.50;99.90;;;;;;5136634;27;20394;-51
2023/03/05 05:15:06;;;;;;;40.38;24.13;;;5.50;99.90;;;;;;5136432;27;20027;-51
2023/03/05 05:17:33;;;;;;;39.83;23.90;;;5.60;99.90;;;;;;5136394;27;20037;-52
2023/03/05 05:20:00;;;;;;;39.75;23.38;;;5.70;99.90;;;;;;5136289;27;20513;-51
2023/03/05 05:22:27;;;;;;;37.55;21.42;;;5.70;99.90;;;;;;5136382;27;20482;-52
2023/03/05 05:24:53;;;;;;;36.70;20.88;;;5.60;99.90;;;;;;5136597;27;20034;-51
2023/03/05 05:27:19;;;;;;;31.95;20.05;;;5.60;99.90;;;;;;5136351;27;20039;-52
2023/03/05 05:29:49;;;;;;;33.83;18.75;;;5.50;99.90;;;;;;5136078;27;20458;-52
2023/03/05 05:32:19;;;;;;;32.58;19.35;;;5.60;99.90;;;;;;5136049;27;20035;-51
2023/03/05 05:34:45;;;;;;;27.33;17.98;;;5.70;99.90;;;;;;5136196;27;20535;-52
2023/03/05 05:37:10;;;;;;;31.75;18.92;;;5.70;99.90;;;;;;5136284;27;20023;-52
2023/03/05 05:39:37;;;;;;;39.08;24.52;;;5.70;99.90;;;;;;5134566;27;20039;-52
2023/03/05 05:42:03;;;;;;;37.70;23.40;;;5.80;99.90;;;;;;5136058;27;20035;-51
2023/03/05 05:44:28;;;;;;;42.47;25.30;;;5.80;99.90;;;;;;5117081;27;20039;-52
2023/03/05 05:46:54;;;;;;;33.20;18.83;;;5.90;99.90;;;;;;5135805;27;20027;-51
2023/03/05 05:49:20;;;;;;;38.13;21.88;;;5.90;99.90;;;;;;5135940;27;20425;-51
2023/03/05 05:51:46;;;;;;;46.00;24.35;;;6.00;99.90;;;;;;5135695;27;20359;-52
2023/03/05 05:54:14;;;;;;;38.38;22.70;;;6.10;99.90;;;;;;5135677;27;20159;-52
2023/03/05 05:56:40;;;;;;;37.42;23.00;;;6.20;99.90;;;;;;5135774;27;20490;-52
2023/03/05 05:59:07;;;;;;;41.63;24.25;;;6.20;99.90;;;;;;5133606;27;20039;-52
2023/03/05 06:01:33;;;;;;;36.83;23.65;;;6.10;99.90;;;;;;5135731;27;20117;-52
2023/03/05 06:04:00;;;;;;;40.95;22.77;;;6.20;99.90;;;;;;5135642;27;20035;-51
2023/03/05 06:06:27;;;;;;;40.20;22.10;;;6.20;99.90;;;;;;5135570;27;20095;-52
2023/03/05 06:08:53;;;;;;;37.33;22.15;;;6.20;99.90;;;;;;5135603;27;20039;-52
2023/03/05 06:11:19;;;;;;;41.75;24.30;;;6.30;99.90;;;;;;5135399;27;20414;-51
2023/03/05 06:13:45;;;;;;;37.97;23.27;;;6.30;99.90;;;;;;5134946;27;20027;-51
2023/03/05 06:16:15;;;;;;;39.40;24.02;;;6.20;99.90;;;;;;5135670;27;20031;-51
2023/03/05 06:18:41;;;;;;;43.13;26.98;;;6.20;99.90;;;;;;5135086;27;20055;-52
2023/03/05 06:21:10;;;;;;;40.60;24.42;;;6.20;99.90;;;;;;5116136;27;20067;-52
2023/03/05 06:23:36;;;;;;;38.92;22.92;;;6.20;99.90;;;;;;5135023;27;20027;-52
2023/03/05 06:26:04;;;;;;;35.85;21.80;;;6.30;99.90;;;;;;5135273;27;20039;-52
2023/03/05 06:28:30;;;;;;;39.35;24.83;;;6.30;99.90;;;;;;5135129;27;20039;-51
2023/03/05 06:31:03;;;;;;;38.53;23.92;;;6.40;99.90;;;;;;5135342;27;20035;-52
2023/03/05 06:33:29;;;;;;;38.92;23.50;;;6.40;99.90;;;;;;5083891;28;20048;-52
2023/03/05 06:35:55;;;;;;;33.58;20.65;;;6.40;99.90;;;;;;5088843;28;20109;-51
2023/03/05 06:38:21;;;;;;;35.28;21.63;;;6.40;99.90;;;;;;5090366;28;20113;-52
2023/03/05 06:40:47;;;;;;;37.42;21.52;;;6.40;99.90;;;;;;5087925;28;20499;-52
2023/03/05 06:43:13;;;;;;;33.17;21.30;;;6.50;99.90;;;;;;5085673;28;20054;-51
2023/03/05 06:45:38;;;;;;;37.58;23.15;;;6.50;99.90;;;;;;5088203;28;20028;-52
2023/03/05 06:48:04;;;;;;;36.35;21.88;;;6.50;99.90;;;;;;5090022;28;20098;-51
2023/03/05 06:50:33;;;;;;;36.35;20.45;;;6.60;99.90;;;;;;4998382;28;20044;-52
2023/03/05 06:52:58;;;;;;;31.35;19.02;;;6.50;99.90;;;;;;5090668;28;20044;-51
2023/03/05 06:55:24;;;;;;;30.45;21.23;;;6.60;99.90;;;;;;5090193;28;20032;-52
2023/03/05 06:57:50;;;;;;;33.13;23.25;;;6.60;99.90;;;;;;5090376;28;20032;-51
2023/03/05 07:00:16;;;;;;;36.20;22.38;;;6.70;99.90;;;;;;5090202;28;20535;-51
2023/03/05 07:02:42;;;;;;;30.58;19.40;;;6.60;99.90;;;;;;5072753;28;20426;-52
2023/03/05 07:05:08;;;;;;;31.20;17.67;;;6.70;99.90;;;;;;5140725;27;20083;-51
2023/03/05 07:07:34;;;;;;;29.23;18.85;;;6.70;99.90;;;;;;5059510;27;20055;-52
2023/03/05 07:10:00;;;;;;;28.25;18.17;;;6.70;99.90;;;;;;5134360;27;20561;-51
2023/03/05 07:12:26;;;;;;;30.92;15.93;;;6.80;99.90;;;;;;5081341;27;20039;-51
2023/03/05 07:14:51;;;;;;;30.77;18.20;;;6.80;99.90;;;;;;5152447;27;20382;-51
2023/03/05 07:17:17;;;;;;;33.38;17.25;;;6.70;99.90;;;;;;5140452;27;20470;-52
2023/03/05 07:19:43;;;;;;;23.48;16.83;;;6.80;99.90;;;;;;5151602;27;20058;-51
2023/03/05 07:22:09;;;;;;;25.20;16.40;;;6.80;99.90;;;;;;5155282;27;20079;-51
2023/03/05 07:24:35;;;;;;;27.08;16.23;;;6.80;99.90;;;;;;5145759;27;20375;-51
2023/03/05 07:27:01;;;;;;;33.38;21.55;;;6.90;99.90;;;;;;5133907;28;20431;-51
2023/03/05 07:29:28;;;;;;;23.92;15.40;;;7.00;99.90;;;;;;5133966;27;20088;-52
2023/03/05 07:31:54;;;;;;;27.38;17.77;;;7.00;99.90;;;;;;5134219;28;20091;-51
2023/03/05 07:34:20;;;;;;;26.92;17.02;;;7.10;99.90;;;;;;5149358;27;20435;-52
2023/03/05 07:36:49;;;;;;;26.40;16.33;;;7.10;99.90;;;;;;5154796;27;20031;-51
2023/03/05 07:39:17;;;;;;;27.58;16.77;;;7.10;99.90;;;;;;5154615;27;20023;-52
2023/03/05 07:41:43;;;;;;;33.42;18.13;;;7.00;99.90;;;;;;5102710;27;20043;-51
2023/03/05 07:44:09;;;;;;;28.15;18.02;;;7.10;99.90;;;;;;5140096;27;20023;-51
2023/03/05 07:46:35;;;;;;;23.90;16.02;;;7.10;99.90;;;;;;5136373;27;20039;-52
2023/03/05 07:49:01;;;;;;;28.65;16.75;;;7.20;99.90;;;;;;5146372;27;20035;-51
2023/03/05 07:51:27;;;;;;;26.08;17.40;;;7.30;99.90;;;;;;5142461;27;20418;-51
2023/03/05 07:53:56;;;;;;;25.17;15.52;;;7.40;99.90;;;;;;5090805;28;20039;-51
2023/03/05 07:56:25;;;;;;;22.20;14.98;;;7.50;99.90;;;;;;5077638;28;20040;-51
2023/03/05 07:58:51;;;;;;;26.70;15.43;;;7.30;99.90;;;;;;5078559;28;20040;-51
2023/03/05 08:01:17;;;;;;;22.25;15.05;;;7.10;99.90;;;;;;5089161;28;20060;-52
2023/03/05 08:03:43;;;;;;;21.80;13.90;;;7.30;99.90;;;;;;5079527;28;20097;-51
2023/03/05 08:06:11;;;;;;;18.38;11.90;;;7.20;99.90;;;;;;5063931;28;20044;-52
2023/03/05 08:08:37;;;;;;;15.57;10.43;;;7.20;99.90;;;;;;5088285;28;20044;-52
2023/03/05 08:11:05;;;;;;;17.90;12.07;;;7.10;99.90;;;;;;5088022;28;20206;-53
2023/03/05 08:13:34;;;;;;;19.65;13.05;;;7.30;99.90;;;;;;5087743;28;20483;-51
2023/03/05 08:16:07;;;;;;;21.70;12.50;;;7.40;99.90;;;;;;5089463;28;20066;-52
2023/03/05 08:18:33;;;;;;;18.88;12.95;;;7.60;99.90;;;;;;5070047;28;20102;-52
2023/03/05 08:20:59;;;;;;;20.27;12.43;;;7.60;99.90;;;;;;5090686;28;20072;-52
2023/03/05 08:23:25;;;;;;;21.65;11.70;;;7.80;99.90;;;;;;5090593;28;20135;-53
2023/03/05 08:25:51;;;;;;;17.63;11.75;;;7.80;99.90;;;;;;5148605;27;20114;-52
2023/03/05 08:28:18;;;;;;;22.30;11.43;;;7.70;99.90;;;;;;5154099;27;20129;-52
2023/03/05 08:30:45;;;;;;;17.83;12.32;;;7.70;99.90;;;;;;5154068;27;20035;-52
2023/03/05 08:33:11;;;;;;;17.20;12.13;;;7.80;99.90;;;;;;5154229;27;20034;-52
2023/03/05 08:35:37;;;;;;;18.50;11.90;;;7.90;99.90;;;;;;5154300;27;20419;-53
2023/03/05 08:38:03;;;;;;;20.92;11.75;;;7.80;99.90;;;;;;5158137;27;20038;-52
2023/03/05 08:40:30;;;;;;;17.65;11.15;;;7.80;99.90;;;;;;5138690;27;20087;-52
2023/03/05 08:42:57;;;;;;;14.93;8.73;;;7.70;99.90;;;;;;5157686;27;20030;-52
2023/03/05 08:45:23;;;;;;;17.88;10.27;;;7.50;99.90;;;;;;5157876;27;20101;-52
2023/03/05 08:47:49;;;;;;;18.48;11.05;;;7.50;99.90;;;;;;5157950;27;20051;-53
2023/03/05 08:50:16;;;;;;;26.60;20.88;;;7.50;99.90;;;;;;5157820;27;20117;-52
2023/03/05 08:52:42;;;;;;;251.93;158.93;;;7.60;99.90;;;;;;5105140;27;20070;-52
2023/03/05 08:55:08;;;;;;;28.35;17.88;;;7.50;99.90;;;;;;5157663;27;20076;-52
2023/03/05 08:57:34;;;;;;;31.27;17.50;;;7.50;99.90;;;;;;5104196;27;20125;-53
2023/03/05 08:59:59;;;;;;;23.65;15.52;;;7.60;99.90;;;;;;5104229;27;20078;-52
2023/03/05 09:02:25;;;;;;;33.72;21.08;;;7.70;99.90;;;;;;5157323;27;20492;-52
2023/03/05 09:04:51;;;;;;;51.88;36.22;;;7.70;99.90;;;;;;5157957;27;20407;-52
2023/03/05 09:07:17;;;;;;;16.73;11.10;;;7.80;99.90;;;;;;5157302;27;20041;-52
2023/03/05 09:09:42;;;;;;;20.13;12.43;;;7.70;99.90;;;;;;5157255;27;20091;-53
2023/03/05 09:12:09;;;;;;;17.98;11.30;;;7.80;99.90;;;;;;5157190;27;20034;-52
2023/03/05 09:14:35;;;;;;;14.60;10.82;;;8.00;99.90;;;;;;5120949;27;20043;-53
2023/03/05 09:17:01;;;;;;;21.20;13.80;;;8.10;99.90;;;;;;5157390;27;20026;-52
2023/03/05 09:19:27;;;;;;;25.85;18.58;;;8.00;99.90;;;;;;5157183;27;20042;-52
2023/03/05 09:21:52;;;;;;;19.02;12.60;;;8.10;99.90;;;;;;5156867;27;20043;-52
2023/03/05 09:24:18;;;;;;;16.50;11.90;;;8.00;99.90;;;;;;5157154;27;20118;-52
2023/03/05 09:26:44;;;;;;;21.98;17.15;;;8.20;99.90;;;;;;5156961;27;20026;-52
2023/03/05 09:29:11;;;;;;;23.40;18.55;;;;;;;;;;5157354;27;20458;-52
2023/03/05 09:31:37;;;;;;;15.48;10.45;;;8.40;99.90;;;;;;5156786;27;20118;-52
2023/03/05 09:34:04;;;;;;;16.80;11.25;;;8.50;99.90;;;;;;5156888;27;20068;-52
2023/03/05 09:36:31;;;;;;;14.82;10.20;;;8.70;99.90;;;;;;5156939;27;20030;-53
2023/03/05 09:38:57;;;;;;;29.38;17.50;;;8.90;99.90;;;;;;5156631;27;20064;-52
2023/03/05 09:41:36;;;;;;;13.98;10.20;;;;;;;;;;5103150;27;20049;-52
2023/03/05 09:44:17;;;;;;;24.38;16.17;;;9.40;99.90;;;;;;5156702;27;20039;-52
2023/03/05 09:46:52;;;;;;;15.30;10.82;;;9.50;99.90;;;;;;5156784;27;20066;-52
2023/03/05 09:49:27;;;;;;;27.85;18.30;;;;;;;;;;5156226;27;20038;-52
2023/03/05 09:51:59;;;;;;;105.65;53.30;;;10.00;99.90;;;;;;5156556;27;20402;-53
2023/03/05 09:54:40;;;;;;;140.77;69.43;;;9.90;99.90;;;;;;5120654;27;20038;-53
2023/03/05 09:57:17;;;;;;;15.60;11.33;;;10.00;99.90;;;;;;5156591;27;20044;-53
2023/03/05 09:59:51;;;;;;;19.13;13.02;;;10.10;99.90;;;;;;5156212;27;20473;-53
2023/03/05 10:02:23;;;;;;;32.97;19.15;;;10.30;99.90;;;;;;5119966;27;20129;-53
2023/03/05 10:05:07;;;;;;;37.35;23.38;;;10.60;99.90;;;;;;5156204;27;20026;-52
2023/03/05 10:07:38;;;;;;;40.95;24.10;;;10.60;99.90;;;;;;5156149;27;20027;-52
2023/03/05 10:10:16;;;;;;;15.18;10.25;;;10.70;99.90;;;;;;5120857;27;20083;-52
2023/03/05 10:12:49;;;;;;;15.27;10.85;;;10.80;99.90;;;;;;5155821;27;20038;-53
2023/03/05 10:15:20;;;;;;;;;;;10.90;99.90;;;;;;5156585;27;20033;-52
2023/03/05 10:18:04;;;;;;;13.25;10.25;;;11.00;99.90;;;;;;5155687;27;19911;-53
2023/03/05 10:20:33;;;;;;;21.25;10.68;;;10.90;99.90;;;;;;5155906;27;20455;-52
2023/03/05 10:23:29;;;;;;;15.55;10.35;;;11.20;99.90;;;;;;5155970;27;20461;-52
2023/03/05 10:26:01;;;;;;;15.05;10.02;;;11.30;99.90;;;;;;5155668;27;20061;-53
2023/03/05 10:28:34;;;;;;;23.15;11.48;;;11.20;99.90;;;;;;5155695;27;20030;-52
2023/03/05 10:31:35;;;;;;;12.52;8.10;;;11.70;99.90;;;;;;5155597;27;20026;-53
2023/03/05 10:34:29;;;;;;;14.63;9.60;;;11.60;99.90;;;;;;5155748;27;20023;-53
2023/03/05 10:37:13;;;;;;;13.93;10.98;;;12.60;99.90;;;;;;5152413;27;20034;-52
2023/03/05 10:40:28;;;;;;;15.57;10.93;;;12.20;99.90;;;;;;5155676;27;20038;-54
2023/03/05 10:43:07;;;;;;;16.67;11.48;;;;;;;;;;5051503;28;20041;-53
2023/03/05 10:45:33;;;;;;;14.88;9.18;;;;;;;;;;5034555;28;20101;-53
2023/03/05 10:48:04;;;;;;;14.45;9.32;;;;;;;;;;5051294;28;20135;-53
2023/03/05 10:50:36;;;;;;;15.20;9.63;;;13.30;97.50;;;;;;5051448;28;20121;-53
2023/03/05 10:53:24;;;;;;;13.13;9.50;;;13.60;97.40;;;;;;5051193;28;20033;-53
2023/03/05 10:55:54;;;;;;;12.88;9.00;;;;;;;;;;5050992;28;20029;-53
2023/03/05 10:58:22;;;;;;;11.70;9.35;;;13.00;96.40;;;;;;5051201;28;20103;-53
2023/03/05 11:01:09;;;;;;;13.10;9.65;;;12.80;97.60;;;;;;5050078;28;20115;-53
2023/03/05 11:03:53;;;;;;;11.68;8.10;;;;;;;;;;5051098;28;20028;-53
2023/03/05 11:06:28;;;;;;;10.95;8.73;;;13.00;95.60;;;;;;5034461;28;20501;-53
2023/03/05 11:08:54;;;;;;;12.23;8.77;;;13.00;96.20;;;;;;5050803;28;20052;-53
2023/03/05 11:11:21;;;;;;;11.60;8.20;;;;;;;;;;5051497;28;20036;-53
2023/03/05 11:14:01;;;;;;;12.30;9.52;;;;;;;;;;5109953;27;20474;-53
2023/03/05 11:16:29;;;;;;;9.27;7.68;;;;;;;;;;5090945;28;20052;-53
2023/03/05 11:19:18;;;;;;;10.70;7.43;;;13.90;99.20;;;;;;5090698;28;20483;-53
2023/03/05 11:21:46;;;;;;;16.02;8.75;;;14.30;93.60;;;;;;5091316;28;20078;-53
2023/03/05 11:24:17;;;;;;;10.48;7.88;;;13.90;93.90;;;;;;5091245;28;20040;-53
2023/03/05 11:26:52;;;;;;;10.50;7.15;;;14.00;92.90;;;;;;5090948;28;20123;-53
2023/03/05 11:29:41;;;;;;;12.07;9.32;;;;;;;;;;5091127;28;20044;-53
2023/03/05 11:32:27;;;;;;;12.18;8.23;;;14.90;91.80;;;;;;5089033;28;20039;-53
2023/03/05 11:34:54;;;;;;;15.05;9.05;;;;;;;;;;5090923;28;20029;-54
2023/03/05 11:37:30;;;;;;;9.43;6.60;;;15.30;93.30;;;;;;5091183;28;20093;-53
2023/03/05 11:40:15;;;;;;;12.18;8.80;;;14.60;90.40;;;;;;5095733;27;20064;-53
2023/03/05 11:42:42;;;;;;;12.15;8.60;;;14.40;91.50;;;;;;5154676;27;20018;-54
2023/03/05 11:45:18;;;;;;;10.63;8.15;;;14.70;91.80;;;;;;5154379;27;20110;-54
2023/03/05 11:47:52;;;;;;;11.38;7.97;;;;;;;;;;5154589;27;20037;-53
2023/03/05 11:50:23;;;;;;;10.48;7.53;;;15.70;91.20;;;;;;5154739;27;20022;-54
2023/03/05 11:52:53;;;;;;;9.75;7.82;;;15.20;89.40;;;;;;5119223;27;20039;-54
2023/03/05 11:55:26;;;;;;;9.85;7.35;;;15.30;88.80;;;;;;5154620;27;20027;-54
2023/03/05 11:58:16;;;;;;;9.60;7.25;;;15.40;88.30;;;;;;5154638;27;20103;-54
2023/03/05 12:00:44;;;;;;;11.00;8.20;;;15.30;90.10;;;;;;5118131;27;20034;-54
2023/03/05 12:03:17;;;;;;;18.38;13.32;;;14.60;89.90;;;;;;5101285;27;20091;-54
2023/03/05 12:05:50;;;;;;;9.93;7.07;;;14.60;90.40;;;;;;5154784;27;20019;-54
2023/03/05 12:08:24;;;;;;;12.38;7.22;;;14.30;89.60;;;;;;5154691;27;20062;-54
2023/03/05 12:10:51;;;;;;;13.95;8.57;;;14.00;91.00;;;;;;5154531;27;20038;-54
2023/03/05 12:13:28;;;;;;;18.92;8.25;;;13.90;91.50;;;;;;5139275;27;20023;-54
2023/03/05 12:16:06;;;;;;;12.05;7.15;;;;;;;;;;5158578;27;20019;-54
2023/03/05 12:18:36;;;;;;;10.80;8.55;;;13.80;89.60;;;;;;5158384;27;20095;-53
2023/03/05 12:21:07;;;;;;;10.88;7.78;;;14.00;90.30;;;;;;5158444;27;20018;-54
2023/03/05 12:23:50;;;;;;;13.32;8.90;;;13.80;90.30;;;;;;5158100;27;20083;-54
2023/03/05 12:26:17;;;;;;;15.73;11.02;;;14.00;90.50;;;;;;5158296;27;20027;-53
2023/03/05 12:28:45;;;;;;;12.18;8.38;;;14.30;90.30;;;;;;5158041;27;20042;-53
2023/03/05 12:31:33;;;;;;;13.80;9.52;;;14.50;91.20;;;;;;5158297;27;20027;-53
2023/03/05 12:33:59;;;;;;;11.20;8.27;;;;;;;;;;5157817;27;20428;-54
2023/03/05 12:36:33;;;;;;;12.52;9.32;;;14.30;90.70;;;;;;5157887;27;20023;-54
2023/03/05 12:38:59;;;;;;;11.80;9.02;;;14.80;90.60;;;;;;5094139;28;20594;-54
2023/03/05 12:41:25;;;;;;;11.48;7.38;;;;;;;;;;5060498;28;20047;-53
2023/03/05 12:44:06;;;;;;;10.20;8.13;;;15.80;88.40;;;;;;5094175;28;20391;-53
2023/03/05 12:46:38;;;;;;;10.10;7.55;;;;;;;;;;5093940;28;20468;-53
2023/03/05 12:49:04;;;;;;;;;;;;;;;;;;5094100;28;20036;-53
2023/03/05 12:51:33;;;;;;;11.40;8.30;;;;;;;;;;5093941;28;19904;-53
2023/03/05 12:54:22;;;;;;;12.93;9.77;;;14.90;90.00;;;;;;5093829;28;20064;-52
2023/03/05 12:56:48;;;;;;;11.70;8.73;;;;;;;;;;5093683;28;20102;-53